Aérodrome :
LOGIN :

S'inscrire | Disclaimer

   EN    FR    IT 

 










Légende :    VFR   VFR Marginal   IFR   IFR Intensif   IFR Très Intensif
Visi : 
Plafond : 
>= 8 km
>= 3000ft
5 à 8 km
1000 à 3000 ft
1500m à 5 km
500 à 1000 ft
800 à 1500m
200 à 500 ft
< 800m
< 200 ft
Symboles :   Orages  Brouillard  Fortes neiges  Fortes précipitations  Vent > 20 kt
SIGMETs :   Divers  Orages  Givrage  Turbulence  Onde Orograph.  Cendres Volcan.






- Altitude de l'aérodrome : 56 ft
- Code IATA : SSJ


ENST - Sandnessjøen , Stokka

DERNIER METAR :
  • 020520Z 19011KT 9999 -SHSN FEW008 FEW012CB BKN020 02/M01 Q0977 RMK WIND 300FT 18016KT

METARs EXPIRÉS :
  • 020450Z 18016KT 9999 -SHSN FEW012CB FEW020 SCT035 02/M01 Q0977 RMK WIND 300FT 17019KT
  • 020420Z 18013KT 9999 VCSH FEW018CB FEW025 BKN035 02/M02 Q0977 RMK WIND 300FT 18017KT
  • 020350Z 18014KT 9999 FEW020 SCT030 02/M01 Q0978 RMK WIND 300FT 19016KT
  • 020320Z 20015KT 9999 VCSH FEW012CB SCT025 01/M01 Q0979 RMK WIND 300FT 21014KT
  • 020250Z 21026G37KT 9999 SHRASNGS BKN012CB 01/M01 Q0979 RMK WIND 300FT 23023G38KT

TAF N/A



MET'MAP, la Météo Aéronautique d'un coup d'oeil ! - Copyright ORBIFLY Décembre 2007 - Disclaimer

ORBIFLY MET'MAP TEAM :

Programmation & Développement : Alexandra Zaïnal
Sur une idée originale de : Baudouin d'Aumeries
Assistance à la programmation : Marc-Olivier Méhu
Soutien technique & logistique : Manuel Goepfert

Contact : metmap@orbifly.com




SOURCES & CREDITS :

   NOAA